Minneapolis, MN

7:09 AM CDT on August 27, 2016 (GMT -0500)
Honeywell Labs | | Change Station

Elev 946 ft 45.00 °N, 93.36 °W | Updated 11 seconds ago

Rain
Rain
64.6 °F
Feels Like 64.6 °F
N
3.0
Wind Variable Wind from East
Gusts 3.0 mph

Today
High -- | Low -- °F
--% Chance of Precip.
Yesterday
High -- | Low -- °F
Precip. -- in
Pressure 30.06 in
Visibility 10.0 miles
Clouds Overcast 9000 ft
Dew Point 62 °F
Humidity 92%
Rainfall 0.00 in
Snow Depth Not available.
6:30 AM 7:58 PM
Waning Crescent, 25% visible
METAR KMIC 271153Z 01003KT 10SM OVC090 17/14 A3006 RMK AO2 RAE41 SLP177 P0000 60000 T01670144 10183 20161 53001
Pressure 30.06 in
Visibility 10.0 miles
Clouds Overcast 9000 ft
Dew Point 62 °F
Humidity 92%
Rainfall 0.00 in
Snow Depth Not available.
6:30 AM 7:58 PM
Waning Crescent, 25% visible
METAR KMIC 271153Z 01003KT 10SM OVC090 17/14 A3006 RMK AO2 RAE41 SLP177 P0000 60000 T01670144 10183 20161 53001

10-Day Weather Forecast

Almanac

Astronomy

Aug. 27, 2016 Rise Set
Actual Time
Civil Twilight
Nautical Twilight
Astronomical Twilight
Moon
Length of Visible Light
Length of Day
Tomorrow will be .
, % of the Moon is Illuminated

Today's Extremes

State Highs State Lows

Community

WunderPhotos

Upload Photos

1,935,325 photos uploaded!

WunderBlog® & News

Nearby

Air Quality

  Air Quality AQ Index Pollutant
Not available.

Snow Depth

Station Depth Elevation

Earthquake Activity

City Distance Mag. Time & Date
Minimum magnitude displayed is 2.5.

Coastal Water Temperatures

Place Temperature

Stations

Nearby Weather Stations

Station Location Temp. Windchill Dew Point Humidity Wind Precip. Elev Updated Type
                   

Watches & Warnings

There are currently no watches in effect.